Weather reports worldwide

Advertisment
Cieza, Spain (8363): temperature & dewpoint: 20.09.2018 17:00:00 - 26.09.2018 17:00:00 (CEST)Cieza, Spain (8363): wind speed & gusts: 20.09.2018 17:00:00 - 26.09.2018 17:00:00 (CEST)Cieza, Spain (8363): wind direction: 20.09.2018 17:00:00 - 26.09.2018 17:00:00 (CEST)Cieza, Spain (8363): precipitation: 20.09.2018 17:00:00 - 26.09.2018 17:00:00 (CEST)
Date & Time tt [°C] td [°C] ff [km/h] ff [kn] fx [km/h] fx [kn] dd rr [mm]
26.09.2018 17:00:00 - - - - - - - -
26.09.2018 16:00:00 27,0 - 17 9 27 15 ESE 0,0
26.09.2018 15:00:00 28,9 - 16 9 27 15 SE 0,0
26.09.2018 14:00:00 28,9 19,2 8 4 26 14 NNE -
26.09.2018 13:00:00 28,9 18,9 10 5 24 13 NE 0,0
26.09.2018 12:00:00 28,9 19,8 11 6 27 14 NNE 0,0
26.09.2018 11:00:00 27,6 - 5 3 16 9 NNW 0,0
26.09.2018 10:00:00 22,2 - 10 5 21 12 N 0,0
26.09.2018 09:00:00 20,9 - 14 8 21 11 N 0,0
26.09.2018 08:00:00 20,0 - 9 5 16 9 W -
26.09.2018 07:00:00 20,6 - 9 5 17 9 NNE 0,0
26.09.2018 06:00:00 21,1 - 9 5 18 10 NNE 0,0
26.09.2018 05:00:00 21,3 - 10 5 18 10 NE 0,0
26.09.2018 04:00:00 21,4 - 5 3 18 10 SE 0,0
26.09.2018 03:00:00 21,5 - 9 5 19 10 ESE 0,0
26.09.2018 02:00:00 21,5 - 10 5 18 10 ESE -
26.09.2018 01:00:00 21,7 - 12 7 24 13 ESE 0,0
26.09.2018 00:00:00 21,9 - 12 7 22 12 ESE 0,0
25.09.2018 23:00:00 22,2 - 14 8 31 17 SE 0,0
25.09.2018 22:00:00 22,2 - 14 7 30 16 ESE 0,0
25.09.2018 21:00:00 22,5 - 19 11 38 20 ESE 0,0
25.09.2018 20:00:00 - - - - - - - -
25.09.2018 19:00:00 25,4 - 22 12 33 18 ESE 0,0
25.09.2018 18:00:00 26,9 - 17 9 30 16 ESE 0,0
25.09.2018 17:00:00 27,9 - 16 9 30 16 ESE 0,0
25.09.2018 16:00:00 28,1 - 15 8 28 15 ESE 0,0
25.09.2018 15:00:00 27,5 - 16 8 28 15 ESE 0,0
25.09.2018 14:00:00 26,8 - 10 5 21 11 E -
25.09.2018 13:00:00 25,8 - 8 4 17 9 ESE 0,0
25.09.2018 12:00:00 25,2 - 3 1 15 8 ESE 0,0
25.09.2018 11:00:00 24,2 - 1 1 11 6 NNE 0,0
25.09.2018 10:00:00 22,5 - 6 4 14 7 N 0,0
25.09.2018 09:00:00 20,7 - 4 2 11 6 NNE 0,0
25.09.2018 08:00:00 19,8 - 1 1 6 4 E -
25.09.2018 07:00:00 20,5 - 1 1 5 3 E 0,0
25.09.2018 06:00:00 21,2 - 1 0 8 5 E 0,0
25.09.2018 05:00:00 20,6 - 1 1 9 5 ESE 0,0
25.09.2018 04:00:00 21,2 - 3 1 9 5 E 0,0
25.09.2018 03:00:00 21,3 - 1 0 6 3 E 0,0
25.09.2018 02:00:00 21,8 - 1 0 11 6 E -
25.09.2018 01:00:00 22,4 - 5 3 11 6 ESE 0,0
25.09.2018 00:00:00 22,7 - 5 3 18 10 E 0,0
24.09.2018 23:00:00 23,5 - 9 5 21 12 SSE 0,0
24.09.2018 22:00:00 23,8 - 14 7 28 15 SE 0,0
24.09.2018 21:00:00 24,5 - 19 10 36 19 SE 0,0
24.09.2018 20:00:00 26,1 - 20 11 36 19 ESE -
24.09.2018 19:00:00 28,6 - 20 11 35 19 ESE 0,0
24.09.2018 18:00:00 30,8 - 17 9 32 17 SE 0,0
24.09.2018 17:00:00 32,0 - 15 8 26 14 SE 0,0
24.09.2018 16:00:00 32,2 - 16 8 26 14 SE 0,0
24.09.2018 15:00:00 31,8 - 16 8 26 14 SE 0,0
24.09.2018 14:00:00 31,1 - 14 7 23 12 SE -
24.09.2018 13:00:00 30,7 - 8 4 17 9 SE 0,0
24.09.2018 12:00:00 27,5 - 7 4 14 7 W 0,0
24.09.2018 11:00:00 24,4 -9,4 10 6 17 9 WNW 0,0
24.09.2018 10:00:00 21,3 -11,7 12 6 17 9 W 0,0
24.09.2018 09:00:00 19,1 -13,3 10 5 16 9 W 0,0
24.09.2018 08:00:00 18,6 -12,2 13 7 19 11 W -
24.09.2018 07:00:00 18,5 -13,9 9 5 12 7 W 0,0
24.09.2018 06:00:00 18,6 -13,9 3 2 10 5 WNW 0,0
24.09.2018 05:00:00 19,6 -11,7 7 4 12 6 WNW 0,0
24.09.2018 04:00:00 19,7 -12,8 0 0 7 4 N 0,0
24.09.2018 03:00:00 20,4 -11,2 6 3 8 4 W 0,0
24.09.2018 02:00:00 21,3 -10,3 4 2 7 4 WNW -
24.09.2018 01:00:00 21,5 -11,2 0 0 5 3 E 0,0
24.09.2018 00:00:00 22,7 -9,4 0 0 6 4 N 0,0
23.09.2018 23:00:00 24,5 -7,8 2 1 17 9 SSE 0,0
23.09.2018 22:00:00 25,7 -8,2 13 7 23 12 SE 0,0
23.09.2018 21:00:00 26,8 -7,5 13 7 22 12 SE 0,0
23.09.2018 20:00:00 29,0 -4,5 12 7 23 12 SE -
23.09.2018 19:00:00 31,0 -3,0 15 8 23 13 SE 0,0
23.09.2018 18:00:00 32,3 -2,0 15 8 21 12 SE 0,0
23.09.2018 17:00:00 32,6 -1,7 13 7 22 12 SE 0,0
23.09.2018 16:00:00 32,9 -2,7 11 6 21 11 ESE 0,0
23.09.2018 15:00:00 32,8 -2,7 10 6 21 11 ESE 0,0
23.09.2018 14:00:00 31,9 -3,6 8 4 16 9 ESE -
23.09.2018 13:00:00 30,1 -4,8 3 2 12 6 SSE 0,0
23.09.2018 12:00:00 26,3 -7,8 7 4 14 8 W 0,0
23.09.2018 11:00:00 23,5 -9,9 10 5 16 9 W 0,0
23.09.2018 10:00:00 21,0 -11,7 9 5 15 8 W 0,0
23.09.2018 09:00:00 18,4 -13,9 8 5 13 7 W 0,0
23.09.2018 08:00:00 18,0 -12,8 8 5 11 6 W -
23.09.2018 07:00:00 18,3 -13,9 7 4 14 7 W 0,0
23.09.2018 06:00:00 19,0 -12,2 7 4 12 6 WNW 0,0
23.09.2018 05:00:00 19,1 -13,3 8 4 9 5 W 0,0
23.09.2018 04:00:00 19,5 -12,8 0 0 7 4 N 0,0
23.09.2018 03:00:00 20,0 -11,2 1 1 7 4 E 0,0
23.09.2018 02:00:00 20,4 -11,2 3 2 5 3 ESE -
23.09.2018 01:00:00 21,4 -11,7 0 0 9 5 ESE 0,0
23.09.2018 00:00:00 22,3 -9,4 0 0 7 4 ESE 0,0
22.09.2018 23:00:00 24,2 -9,4 7 4 18 10 SE 0,0
22.09.2018 22:00:00 25,6 -8,2 13 7 18 10 SE 0,0
22.09.2018 21:00:00 26,4 -6,4 13 7 29 16 SE 0,0
22.09.2018 20:00:00 28,1 -5,1 16 9 28 15 ESE -
22.09.2018 19:00:00 29,6 -5,4 16 9 28 15 ESE 0,0
22.09.2018 18:00:00 31,2 -4,2 13 7 23 13 SE 0,0
22.09.2018 17:00:00 31,5 -2,5 11 6 23 12 SE 0,0
22.09.2018 16:00:00 31,4 -3,9 11 6 21 12 ESE 0,0
22.09.2018 15:00:00 30,8 -3,0 11 6 26 14 ESE 0,0
22.09.2018 14:00:00 30,2 -3,6 10 5 20 11 SE -
22.09.2018 13:00:00 29,2 -4,5 5 3 11 6 ESE 0,0
22.09.2018 12:00:00 26,4 -6,4 3 1 12 6 NW 0,0
22.09.2018 11:00:00 23,5 -9,9 8 4 11 6 W 0,0
22.09.2018 10:00:00 20,6 -10,8 5 3 9 5 W 0,0
22.09.2018 09:00:00 19,6 -11,7 0 0 6 3 NNW 0,0
22.09.2018 08:00:00 18,9 -13,3 3 2 6 4 WNW -
22.09.2018 07:00:00 19,2 -13,3 4 2 8 4 W 0,0
22.09.2018 06:00:00 19,8 -12,8 6 3 10 6 W 0,0
22.09.2018 05:00:00 20,1 -11,2 7 4 9 5 W 0,0
22.09.2018 04:00:00 20,4 -12,2 0 0 0 0 N 0,0
22.09.2018 03:00:00 20,8 -11,7 0 0 5 3 N 0,0
22.09.2018 02:00:00 21,5 -10,3 2 1 6 3 ESE -
22.09.2018 01:00:00 22,8 -10,3 0 0 6 3 E 0,0
22.09.2018 00:00:00 23,5 -8,6 4 2 9 5 E 0,0
21.09.2018 23:00:00 25,1 -8,6 6 3 19 10 SE 0,0
21.09.2018 22:00:00 26,1 -6,7 13 7 24 13 SE 0,0
21.09.2018 21:00:00 27,1 -6,0 14 7 24 13 SE 0,0
21.09.2018 20:00:00 28,7 -4,8 14 8 27 15 ESE -
21.09.2018 19:00:00 31,1 -2,7 12 7 27 15 SE 0,0
21.09.2018 18:00:00 31,8 -2,2 14 7 24 13 ESE 0,0
21.09.2018 17:00:00 32,1 -3,3 13 7 22 12 SE 0,0
21.09.2018 16:00:00 32,1 -3,3 9 5 22 12 SE 0,0
21.09.2018 15:00:00 31,8 -2,2 7 4 15 8 E 0,0
21.09.2018 14:00:00 29,7 -3,9 3 2 11 6 W -
21.09.2018 13:00:00 27,8 -6,7 6 3 12 7 W 0,0
21.09.2018 12:00:00 25,4 -7,1 8 4 13 7 W 0,0
21.09.2018 11:00:00 22,9 -9,0 6 3 14 8 W 0,0
21.09.2018 10:00:00 20,4 -11,2 9 5 16 9 W 0,0
21.09.2018 09:00:00 18,4 -13,9 10 6 14 8 W 0,0
21.09.2018 08:00:00 18,1 -13,9 9 5 16 8 W -
21.09.2018 07:00:00 18,3 -12,8 10 6 16 8 W 0,0
21.09.2018 06:00:00 18,4 -13,9 7 4 10 5 W 0,0
21.09.2018 05:00:00 19,1 -12,2 5 3 7 4 W 0,0
21.09.2018 04:00:00 19,5 -12,8 0 0 0 0 N 0,0
21.09.2018 03:00:00 19,9 -12,8 0 0 2 1 N 0,0
21.09.2018 02:00:00 20,2 -12,2 1 0 5 3 E -
21.09.2018 01:00:00 20,6 -12,2 0 0 6 4 E 0,0
21.09.2018 00:00:00 21,7 -11,2 4 2 14 7 SE 0,0
20.09.2018 23:00:00 22,7 -9,4 10 5 18 10 SE 0,0
20.09.2018 22:00:00 23,5 -9,9 13 7 23 13 SE 0,0
20.09.2018 21:00:00 24,4 -7,8 14 8 23 13 SE 0,0
20.09.2018 20:00:00 25,8 -8,2 18 10 29 16 ESE -
20.09.2018 19:00:00 28,3 -5,1 11 6 20 11 SE 0,0
20.09.2018 18:00:00 29,4 -4,2 12 7 22 12 SE 0,0
20.09.2018 17:00:00 29,8 -5,1 12 6 23 12 ESE 0,0

tt = temperature
td = dewpoint
ff = wind speed
fx = gusts
dd = wind direction
rr = precipitation

Next stations